Naylor, Georgia
Current Conditions -  °F | °C
As of 3:58 AM on Thursday 27 Nov 2014 (Local Time) from KVAD Reporting Station
Clear Clear  
Wind Chill: 36°   Ceiling: Unl
Heat Index: 41°   Visibility: 10mi
Dew Point: 37°   Wind: 7mph
Humidity: 86%   Direction: 200°SSW
Pressure: 30.17"   Gusts: NA
Location:  30.91°N, 83.08°W
Report Text: KVAD 270858Z AUTO 20006KT 10SM CLR 05/03 A3017 RMK AO2 SLP219 T00500029 55003 $
Loading
Personal Weather Stations






























Interactive Weather Map New forecast layout! Learn more

10-Day Weather Forecast

Advertisements
Track Severe Weather on mobile